Time;durP1;ratioP1;P1;durP2;ratioP2;P2;SDS_P1;SDS_P2;PMS_P1;PMS_P2;Temp;Humidity;BMP_temperature;BMP_pressure;BME280_temperature;BME280_humidity;BME280_pressure;Samples;Min_cycle;Max_cycle;Signal;HPM_P1;HPM_P2
2022/09/02 00:00:48;;;;;;;8.68;2.10;;;24.80;99.90;;;;;;5031951;28;20018;-71
2022/09/02 00:03:15;;;;;;;8.90;2.25;;;24.80;99.90;;;;;;5030765;28;20539;-71
2022/09/02 00:05:42;;;;;;;6.28;2.05;;;24.70;99.90;;;;;;5030532;28;20114;-71
2022/09/02 00:08:09;;;;;;;7.85;1.95;;;24.70;99.90;;;;;;5030623;28;20037;-71
2022/09/02 00:10:39;;;;;;;4.82;2.17;;;24.70;99.90;;;;;;5030393;28;20040;-71
2022/09/02 00:13:07;;;;;;;8.07;2.25;;;24.70;99.90;;;;;;5030730;28;20037;-71
2022/09/02 00:15:33;;;;;;;8.40;2.40;;;24.70;99.90;;;;;;5030216;28;20022;-71
2022/09/02 00:18:00;;;;;;;;;;;24.70;99.90;;;;;;5030740;28;20029;-71
2022/09/02 00:20:26;;;;;;;;;;;24.70;99.90;;;;;;5030766;28;19928;-71
2022/09/02 00:22:52;;;;;;;7.00;2.08;;;24.70;99.90;;;;;;5028699;28;19905;-71
2022/09/02 00:25:18;;;;;;;9.35;2.10;;;24.80;99.90;;;;;;5029953;28;20449;-71
2022/09/02 00:27:44;;;;;;;7.60;2.20;;;24.80;99.90;;;;;;5029733;28;20072;-71
2022/09/02 00:30:11;;;;;;;7.00;2.20;;;24.80;99.90;;;;;;5030221;28;20057;-71
2022/09/02 00:32:38;;;;;;;7.72;2.08;;;24.80;99.90;;;;;;5030124;28;20057;-71
2022/09/02 00:35:05;;;;;;;6.70;1.83;;;24.80;99.90;;;;;;5029801;28;20030;-71
2022/09/02 00:37:31;;;;;;;8.98;2.38;;;24.80;99.90;;;;;;5029889;28;20061;-71
2022/09/02 00:39:57;;;;;;;7.13;2.20;;;24.80;99.90;;;;;;5030194;28;20049;-71
2022/09/02 00:42:24;;;;;;;11.50;2.40;;;24.70;99.90;;;;;;5028606;28;20167;-71
2022/09/02 00:44:51;;;;;;;6.10;1.98;;;24.80;99.90;;;;;;5029750;28;20159;-73
2022/09/02 00:47:17;;;;;;;5.35;2.10;;;24.80;99.90;;;;;;5029968;28;20359;-72
2022/09/02 00:49:47;;;;;;;11.18;2.40;;;24.80;99.90;;;;;;5029927;28;20048;-72
2022/09/02 00:52:22;;;;;;;6.22;1.92;;;24.80;99.90;;;;;;5029826;28;20036;-71
2022/09/02 00:55:03;;;;;;;7.88;2.20;;;24.80;99.90;;;;;;5029832;28;20082;-72
2022/09/02 00:57:33;;;;;;;6.40;2.28;;;24.80;99.90;;;;;;5029877;28;20326;-72
2022/09/02 01:00:19;;;;;;;7.65;2.15;;;24.80;99.90;;;;;;5029557;28;20035;-72
2022/09/02 01:02:55;;;;;;;6.35;2.25;;;24.80;99.90;;;;;;5028024;28;20033;-72
2022/09/02 01:05:25;;;;;;;10.32;2.50;;;24.70;99.90;;;;;;5029807;28;20068;-72
2022/09/02 01:07:53;;;;;;;7.15;2.00;;;24.70;99.90;;;;;;5029659;28;20091;-71
2022/09/02 01:10:34;;;;;;;6.45;2.08;;;24.80;99.90;;;;;;5029151;28;20022;-71
2022/09/02 01:13:06;;;;;;;7.57;2.35;;;24.80;99.90;;;;;;5029529;28;20230;-72
2022/09/02 01:15:36;;;;;;;7.03;2.22;;;24.70;99.90;;;;;;5029648;28;20366;-72
2022/09/02 01:18:05;;;;;;;7.72;2.33;;;24.70;99.90;;;;;;5029592;28;20095;-72
2022/09/02 01:20:32;;;;;;;6.97;2.10;;;24.80;99.90;;;;;;5029227;28;20040;-72
2022/09/02 01:22:59;;;;;;;8.82;3.42;;;24.80;99.90;;;;;;5027721;28;20061;-72
2022/09/02 01:25:29;;;;;;;10.10;3.83;;;24.80;99.90;;;;;;5029340;28;20025;-72
2022/09/02 01:28:06;;;;;;;9.68;4.45;;;24.80;99.90;;;;;;5029181;28;20191;-72
2022/09/02 01:30:34;;;;;;;7.70;3.05;;;24.90;99.90;;;;;;5029447;28;20100;-72
2022/09/02 01:33:01;;;;;;;6.78;2.30;;;24.90;99.90;;;;;;5029212;28;20031;-72
2022/09/02 01:35:28;;;;;;;11.00;2.22;;;24.80;99.90;;;;;;5027716;28;20393;-72
2022/09/02 01:37:57;;;;;;;7.05;2.33;;;24.80;99.90;;;;;;5029225;28;20049;-72
2022/09/02 01:40:25;;;;;;;9.68;2.30;;;24.70;99.90;;;;;;5028953;28;20030;-72
2022/09/02 01:43:19;;;;;;;11.90;2.88;;;24.70;99.90;;;;;;5029210;28;20395;-72
2022/09/02 01:45:48;;;;;;;8.55;2.42;;;24.70;99.90;;;;;;5029376;28;20022;-72
2022/09/02 01:48:14;;;;;;;6.53;1.90;;;24.60;99.90;;;;;;5029139;28;20118;-72
2022/09/02 01:50:44;;;;;;;10.82;2.40;;;24.60;99.90;;;;;;5027867;28;20032;-72
2022/09/02 01:53:10;;;;;;;10.18;2.40;;;24.60;99.90;;;;;;5027490;28;20037;-72
2022/09/02 01:55:37;;;;;;;7.82;2.20;;;24.60;99.90;;;;;;5029154;28;20025;-72
2022/09/02 01:58:03;;;;;;;10.82;1.90;;;24.50;99.90;;;;;;5029032;28;20164;-72
2022/09/02 02:00:29;;;;;;;7.35;2.25;;;24.50;99.90;;;;;;5028965;28;20156;-72
2022/09/02 02:02:56;;;;;;;9.95;2.35;;;24.50;99.90;;;;;;5029178;28;20033;-72
2022/09/02 02:05:22;;;;;;;;;;;24.50;99.90;;;;;;5029470;28;20033;-72
2022/09/02 02:07:48;;;;;;;;;;;24.50;99.90;;;;;;5028047;28;19905;-72
2022/09/02 02:10:15;;;;;;;;;;;24.40;99.90;;;;;;5029524;28;19909;-72
2022/09/02 02:12:41;;;;;;;6.45;2.35;;;24.40;99.90;;;;;;5029112;28;19920;-72
2022/09/02 02:15:12;;;;;;;8.23;2.33;;;24.40;99.90;;;;;;5029326;28;20040;-72
2022/09/02 02:17:38;;;;;;;10.18;2.40;;;24.40;99.90;;;;;;5029135;28;20470;-72
2022/09/02 02:20:06;;;;;;;10.85;2.80;;;24.40;99.90;;;;;;5029151;28;20095;-72
2022/09/02 02:22:33;;;;;;;7.97;2.40;;;24.40;99.90;;;;;;5031622;28;20083;-72
2022/09/02 02:24:59;;;;;;;7.00;2.28;;;24.40;99.90;;;;;;5032898;28;20029;-72
2022/09/02 02:27:25;;;;;;;5.97;2.13;;;24.40;99.90;;;;;;5032384;28;20037;-71
2022/09/02 02:29:52;;;;;;;5.80;2.40;;;24.40;99.90;;;;;;5032850;28;20025;-72
2022/09/02 02:32:18;;;;;;;6.95;2.20;;;24.40;99.90;;;;;;5032632;28;20033;-72
2022/09/02 02:34:44;;;;;;;;;;;24.50;99.90;;;;;;5032956;28;20037;-72
2022/09/02 02:37:11;;;;;;;;;;;24.50;99.90;;;;;;5033247;28;19905;-72
2022/09/02 02:39:39;;;;;;;10.07;2.70;;;24.50;99.90;;;;;;5032230;28;20004;-72
2022/09/02 02:42:06;;;;;;;8.52;2.45;;;24.50;99.90;;;;;;5032190;28;20450;-72
2022/09/02 02:44:33;;;;;;;8.32;2.38;;;24.50;99.90;;;;;;5032330;28;20090;-72
2022/09/02 02:46:59;;;;;;;;;;;24.60;99.90;;;;;;5032174;28;20029;-72
2022/09/02 02:49:26;;;;;;;7.85;2.40;;;24.60;99.90;;;;;;5031915;28;19923;-71
2022/09/02 02:51:53;;;;;;;5.60;2.33;;;24.50;99.90;;;;;;5032606;28;20053;-72
2022/09/02 02:54:19;;;;;;;5.70;2.08;;;24.40;99.90;;;;;;5033600;28;20529;-72
2022/09/02 02:56:46;;;;;;;8.40;2.17;;;24.40;99.90;;;;;;5034103;28;20025;-72
2022/09/02 02:59:13;;;;;;;6.85;2.17;;;24.40;99.90;;;;;;5033566;28;20316;-72
2022/09/02 03:01:39;;;;;;;7.18;2.38;;;24.40;99.90;;;;;;5033775;28;20104;-72
2022/09/02 03:04:05;;;;;;;6.57;2.47;;;24.30;99.90;;;;;;5033903;28;20033;-72
2022/09/02 03:06:31;;;;;;;;;;;24.20;99.90;;;;;;5034300;28;20040;-72
2022/09/02 03:08:59;;;;;;;7.72;2.45;;;24.20;99.90;;;;;;5033469;28;19905;-72
2022/09/02 03:11:27;;;;;;;9.75;2.30;;;24.10;99.90;;;;;;5033794;28;20029;-72
2022/09/02 03:13:54;;;;;;;7.43;2.45;;;24.10;99.90;;;;;;5031890;28;20103;-72
2022/09/02 03:16:20;;;;;;;7.22;2.50;;;24.00;99.90;;;;;;5033288;28;20080;-72
2022/09/02 03:18:48;;;;;;;9.95;2.92;;;24.10;99.90;;;;;;5033695;28;20021;-72
2022/09/02 03:21:14;;;;;;;10.88;2.67;;;24.10;99.90;;;;;;5033682;28;20730;-72
2022/09/02 03:23:42;;;;;;;11.48;2.90;;;24.10;99.90;;;;;;5034305;28;20462;-72
2022/09/02 03:26:10;;;;;;;6.55;2.53;;;24.10;99.90;;;;;;5032335;28;20025;-72
2022/09/02 03:28:36;;;;;;;12.13;3.13;;;24.10;99.90;;;;;;5032064;28;20062;-72
2022/09/02 03:31:03;;;;;;;7.13;2.42;;;24.10;99.90;;;;;;5032089;28;20452;-72
2022/09/02 03:33:29;;;;;;;8.93;2.40;;;24.20;99.90;;;;;;5032975;28;20095;-72
2022/09/02 03:35:56;;;;;;;6.97;2.90;;;24.20;99.90;;;;;;5033491;28;20061;-72
2022/09/02 03:38:22;;;;;;;6.75;2.38;;;24.20;99.90;;;;;;5033678;28;20022;-72
2022/09/02 03:40:48;;;;;;;8.48;2.53;;;24.20;99.90;;;;;;5033375;28;20029;-72
2022/09/02 03:43:15;;;;;;;8.20;2.67;;;24.20;99.90;;;;;;5034378;28;20516;-72
2022/09/02 03:45:42;;;;;;;9.52;2.55;;;24.20;99.90;;;;;;5034021;28;20036;-72
2022/09/02 03:48:09;;;;;;;;;;;24.10;99.90;;;;;;5033820;28;20021;-72
2022/09/02 03:50:39;;;;;;;6.22;2.42;;;24.10;99.90;;;;;;5033060;28;19905;-72
2022/09/02 03:53:06;;;;;;;8.27;2.80;;;24.00;99.90;;;;;;5032894;28;20042;-72
2022/09/02 03:55:34;;;;;;;6.97;2.90;;;24.10;99.90;;;;;;5033126;28;20133;-72
2022/09/02 03:58:00;;;;;;;10.70;2.35;;;24.10;99.90;;;;;;5033065;28;20041;-72
2022/09/02 04:00:32;;;;;;;6.18;2.47;;;24.10;99.90;;;;;;5033337;28;20087;-72
2022/09/02 04:03:00;;;;;;;8.23;2.60;;;24.10;99.90;;;;;;5033166;28;20474;-72
2022/09/02 04:05:26;;;;;;;8.93;2.45;;;24.00;99.90;;;;;;5032814;28;20067;-72
2022/09/02 04:07:53;;;;;;;9.43;2.90;;;24.10;99.90;;;;;;5033039;28;20029;-72
2022/09/02 04:10:20;;;;;;;8.82;2.40;;;24.10;99.90;;;;;;5033033;28;20029;-72
2022/09/02 04:12:50;;;;;;;6.07;2.50;;;24.00;99.90;;;;;;5031130;28;20048;-71
2022/09/02 04:15:17;;;;;;;7.80;2.60;;;23.90;99.90;;;;;;5033033;28;20030;-72
2022/09/02 04:17:44;;;;;;;7.43;2.58;;;23.90;99.90;;;;;;5033117;28;20100;-72
2022/09/02 04:20:12;;;;;;;7.65;2.70;;;23.90;99.90;;;;;;5033288;28;20029;-72
2022/09/02 04:22:39;;;;;;;8.65;2.65;;;23.80;99.90;;;;;;5033304;28;20053;-71
2022/09/02 04:25:06;;;;;;;10.88;2.70;;;23.90;99.90;;;;;;5033453;28;20037;-72
2022/09/02 04:27:33;;;;;;;7.70;2.95;;;23.80;99.90;;;;;;5033310;28;20029;-72
2022/09/02 04:29:59;;;;;;;8.15;2.83;;;23.90;99.90;;;;;;5033551;28;20034;-72
2022/09/02 04:32:25;;;;;;;8.98;2.63;;;23.80;99.90;;;;;;5033246;28;20043;-71
2022/09/02 04:34:51;;;;;;;6.85;2.50;;;23.90;99.90;;;;;;5033214;28;20481;-72
2022/09/02 04:37:17;;;;;;;9.88;3.00;;;23.90;99.90;;;;;;5033831;28;20071;-72
2022/09/02 04:39:43;;;;;;;8.73;3.00;;;23.90;99.90;;;;;;5034220;28;20025;-72
2022/09/02 04:42:09;;;;;;;6.93;3.13;;;23.90;99.90;;;;;;5033996;28;20091;-71
2022/09/02 04:44:35;;;;;;;7.50;2.60;;;23.90;99.90;;;;;;5033000;28;20028;-71
2022/09/02 04:47:01;;;;;;;7.45;2.70;;;23.90;99.90;;;;;;5033642;28;20028;-71
2022/09/02 04:49:30;;;;;;;13.25;3.28;;;23.90;99.90;;;;;;5034018;28;20032;-72
2022/09/02 04:51:57;;;;;;;8.70;2.70;;;23.90;99.90;;;;;;5033706;28;20022;-72
2022/09/02 04:54:23;;;;;;;5.78;2.80;;;23.90;99.90;;;;;;5033799;28;20076;-71
2022/09/02 04:56:50;;;;;;;10.05;2.70;;;23.90;99.90;;;;;;5032026;28;20030;-71
2022/09/02 04:59:16;;;;;;;9.68;2.95;;;24.00;99.90;;;;;;5033372;28;20025;-72
2022/09/02 05:01:42;;;;;;;6.00;2.70;;;23.90;99.90;;;;;;5033362;28;20029;-71
2022/09/02 05:04:08;;;;;;;8.93;2.78;;;23.90;99.90;;;;;;5033207;28;20028;-71
2022/09/02 05:06:35;;;;;;;11.68;2.95;;;23.90;99.90;;;;;;5033514;28;20036;-71
2022/09/02 05:09:03;;;;;;;7.70;2.38;;;23.90;99.90;;;;;;5033159;28;20092;-71
2022/09/02 05:11:31;;;;;;;7.10;2.42;;;24.00;99.90;;;;;;5033450;28;20076;-71
2022/09/02 05:14:00;;;;;;;7.35;2.65;;;24.00;99.90;;;;;;5032767;28;20029;-72
2022/09/02 05:16:35;;;;;;;7.50;2.75;;;24.10;99.90;;;;;;5032999;28;20354;-72
2022/09/02 05:19:03;;;;;;;7.90;2.60;;;24.10;99.90;;;;;;5033936;28;20060;-72
2022/09/02 05:21:30;;;;;;;9.70;2.70;;;24.10;99.90;;;;;;5031945;28;20021;-71
2022/09/02 05:23:57;;;;;;;11.85;2.65;;;24.60;99.90;;;;;;5032847;28;20036;-72
2022/09/02 05:26:24;;;;;;;9.20;2.83;;;25.90;99.90;;;;;;5032760;28;20030;-72
2022/09/02 05:28:50;;;;;;;10.25;2.67;;;27.30;99.90;;;;;;5032474;28;20057;-72
2022/09/02 05:31:18;;;;;;;;;;;28.30;99.90;;;;;;5033014;28;20033;-72
2022/09/02 05:33:44;;;;;;;14.02;2.90;;;29.50;99.90;;;;;;5032500;28;19935;-72
2022/09/02 05:36:21;;;;;;;12.18;2.80;;;30.40;99.70;;;;;;5033050;28;20070;-72
2022/09/02 05:38:48;;;;;;;7.75;2.50;;;31.80;98.50;;;;;;5033163;28;20061;-72
2022/09/02 05:41:18;;;;;;;11.27;2.60;;;33.70;96.60;;;;;;5032629;28;20048;-72
2022/09/02 05:43:45;;;;;;;6.88;1.90;;;35.20;94.60;;;;;;5031275;28;20485;-72
2022/09/02 05:46:16;;;;;;;7.72;2.13;;;36.40;93.20;;;;;;5032599;28;20478;-73
2022/09/02 05:51:29;;;;;;;9.18;2.03;;;37.20;91.60;;;;;;5032797;28;20092;-72
2022/09/02 05:53:57;;;;;;;9.20;2.42;;;38.00;90.90;;;;;;5032459;28;20409;-72
2022/09/02 05:56:23;;;;;;;11.57;2.30;;;38.70;90.40;;;;;;5034572;28;20028;-73
2022/09/02 05:58:50;;;;;;;8.27;2.35;;;39.50;88.90;;;;;;5036071;28;20017;-73
2022/09/02 06:01:18;;;;;;;12.80;2.20;;;40.40;88.00;;;;;;5036127;28;20025;-71
2022/09/02 06:03:45;;;;;;;9.18;2.00;;;41.20;86.40;;;;;;5035946;28;20045;-71
2022/09/02 06:06:12;;;;;;;9.18;1.90;;;41.80;84.80;;;;;;5035777;28;20033;-70
2022/09/02 06:08:38;;;;;;;6.40;2.28;;;42.40;83.60;;;;;;5034137;28;20022;-70
2022/09/02 06:11:08;;;;;;;9.43;1.77;;;42.50;82.90;;;;;;5035809;28;20021;-71
2022/09/02 06:13:40;;;;;;;10.73;1.80;;;43.10;82.10;;;;;;5035444;28;20174;-71
2022/09/02 06:16:12;;;;;;;8.63;1.75;;;43.40;81.20;;;;;;5035869;28;20053;-71
2022/09/02 06:18:38;;;;;;;9.27;2.05;;;43.80;79.90;;;;;;5035795;28;20029;-72
2022/09/02 06:21:05;;;;;;;5.93;1.77;;;43.90;79.30;;;;;;5035746;28;20025;-71
2022/09/02 06:23:34;;;;;;;7.78;2.05;;;44.00;79.10;;;;;;5035676;28;20488;-71
2022/09/02 06:26:14;;;;;;;7.75;2.00;;;44.50;78.20;;;;;;5035929;28;20456;-72
2022/09/02 06:28:40;;;;;;;10.38;1.92;;;44.90;77.00;;;;;;5035344;28;20099;-71
2022/09/02 06:31:13;;;;;;;12.45;2.00;;;45.10;75.90;;;;;;5035791;28;20026;-71
2022/09/02 06:33:41;;;;;;;10.57;1.92;;;45.30;75.00;;;;;;5035898;28;20441;-72
2022/09/02 06:36:15;;;;;;;7.57;1.83;;;45.80;74.80;;;;;;5035391;28;20029;-71
2022/09/02 06:38:44;;;;;;;9.20;1.80;;;46.40;73.90;;;;;;5036031;28;20095;-72
2022/09/02 06:41:15;;;;;;;7.18;1.45;;;46.60;73.20;;;;;;5034303;28;20026;-72
2022/09/02 06:43:42;;;;;;;6.10;1.58;;;46.80;72.20;;;;;;5033850;28;20450;-72
2022/09/02 06:46:17;;;;;;;8.05;1.90;;;45.50;72.90;;;;;;5035532;28;20061;-72
2022/09/02 06:48:56;;;;;;;6.15;1.52;;;45.50;72.10;;;;;;5035786;28;20036;-74
2022/09/02 06:51:30;;;;;;;8.55;1.73;;;44.40;72.70;;;;;;5035695;28;20021;-73
2022/09/02 06:53:57;;;;;;;;;;;44.40;73.20;;;;;;5035927;28;20045;-73
2022/09/02 06:56:23;;;;;;;5.45;1.42;;;43.40;73.90;;;;;;5035161;28;19909;-73
2022/09/02 06:58:49;;;;;;;9.85;2.53;;;42.80;75.30;;;;;;5035163;28;20025;-73
2022/09/02 07:01:28;;;;;;;7.70;2.40;;;43.50;74.50;;;;;;5035708;28;20033;-73
2022/09/02 07:06:41;;;;;;;9.10;2.03;;;45.10;73.10;;;;;;5035463;28;20076;-72
2022/09/02 07:09:10;;;;;;;6.45;2.08;;;45.80;71.80;;;;;;5033562;28;20036;-72
2022/09/02 07:11:37;;;;;;;7.22;1.73;;;46.00;70.40;;;;;;5035508;28;20048;-72
2022/09/02 07:14:04;;;;;;;10.32;1.92;;;46.50;70.30;;;;;;5034855;28;20037;-73
2022/09/02 07:16:34;;;;;;;12.20;2.20;;;46.50;70.80;;;;;;5034969;28;20021;-73
2022/09/02 07:19:01;;;;;;;10.35;2.20;;;46.70;70.60;;;;;;5033672;28;20030;-72
2022/09/02 07:21:29;;;;;;;9.82;2.20;;;46.10;70.70;;;;;;5033692;28;20025;-72
2022/09/02 07:23:58;;;;;;;6.93;1.77;;;45.60;72.10;;;;;;5035427;28;20028;-73
2022/09/02 07:26:25;;;;;;;9.27;1.80;;;45.10;72.70;;;;;;5033475;28;20067;-73
2022/09/02 07:28:51;;;;;;;8.13;2.10;;;44.50;73.40;;;;;;5034663;28;20037;-74
2022/09/02 07:31:18;;;;;;;12.88;2.25;;;43.50;74.70;;;;;;5034798;28;20088;-73
2022/09/02 07:33:45;;;;;;;7.90;2.15;;;42.20;75.40;;;;;;5034780;28;20036;-73
2022/09/02 07:36:12;;;;;;;15.00;2.65;;;41.20;77.20;;;;;;5035317;28;20029;-75
2022/09/02 07:38:40;;;;;;;11.25;2.40;;;40.00;78.90;;;;;;5035229;28;20465;-76
2022/09/02 07:41:07;;;;;;;9.40;2.17;;;38.90;80.90;;;;;;5017069;28;20036;-74
2022/09/02 07:43:35;;;;;;;10.40;2.53;;;37.70;82.50;;;;;;5033507;28;20037;-76
2022/09/02 07:46:02;;;;;;;14.80;3.53;;;37.20;84.90;;;;;;5035297;28;20048;-76
2022/09/02 07:48:30;;;;;;;10.73;2.80;;;36.40;86.70;;;;;;5033628;28;20022;-74
2022/09/02 07:50:57;;;;;;;12.55;2.58;;;36.00;88.40;;;;;;5034387;28;20488;-76
2022/09/02 07:53:23;;;;;;;12.25;2.72;;;35.50;89.70;;;;;;5032869;28;20037;-74
2022/09/02 07:55:50;;;;;;;9.85;2.78;;;35.00;90.60;;;;;;5034398;28;20029;-74
2022/09/02 07:58:19;;;;;;;11.82;3.45;;;35.00;90.50;;;;;;5034457;28;20108;-74
2022/09/02 08:00:46;;;;;;;17.98;3.50;;;35.00;91.30;;;;;;5032686;28;20083;-74
2022/09/02 08:03:13;;;;;;;13.38;2.83;;;34.60;92.10;;;;;;5033978;28;20071;-76
2022/09/02 08:05:40;;;;;;;9.07;3.10;;;34.70;92.50;;;;;;5034106;28;20053;-75
2022/09/02 08:08:07;;;;;;;11.07;2.78;;;34.80;92.70;;;;;;5033732;28;20107;-74
2022/09/02 08:10:34;;;;;;;11.75;2.83;;;34.50;92.80;;;;;;5033384;28;20037;-74
2022/09/02 08:13:01;;;;;;;9.80;2.80;;;34.40;93.30;;;;;;5032687;28;20038;-74
2022/09/02 08:15:28;;;;;;;18.45;2.60;;;34.50;92.90;;;;;;5032349;28;20033;-73
2022/09/02 08:17:57;;;;;;;11.65;2.97;;;34.20;92.90;;;;;;5034234;28;20112;-71
2022/09/02 08:20:23;;;;;;;10.10;2.88;;;34.20;92.90;;;;;;5032659;28;20036;-72
2022/09/02 08:22:49;;;;;;;15.27;2.55;;;33.90;93.30;;;;;;5033734;28;20532;-73
2022/09/02 08:25:17;;;;;;;;;;;33.90;93.80;;;;;;5034151;28;20060;-72
2022/09/02 08:27:44;;;;;;;13.75;2.72;;;34.30;93.40;;;;;;5033396;28;19916;-72
2022/09/02 08:30:11;;;;;;;9.50;2.50;;;34.60;93.10;;;;;;5033599;28;20025;-72
2022/09/02 08:32:39;;;;;;;16.40;3.22;;;34.90;93.00;;;;;;5034096;28;20466;-72
2022/09/02 08:35:11;;;;;;;12.07;3.10;;;35.20;93.20;;;;;;5033491;28;20393;-73
2022/09/02 08:38:11;;;;;;;9.85;3.22;;;35.10;93.70;;;;;;5033869;28;20033;-71
2022/09/02 08:40:40;;;;;;;11.20;3.63;;;34.80;93.80;;;;;;5033860;28;20449;-72
2022/09/02 08:43:37;;;;;;;12.88;3.58;;;34.40;94.30;;;;;;5033997;28;20022;-72
2022/09/02 08:46:04;;;;;;;14.63;3.67;;;33.90;95.40;;;;;;5033296;28;20386;-72
2022/09/02 08:48:43;;;;;;;18.17;3.75;;;34.20;95.60;;;;;;5033030;28;20059;-72
2022/09/02 08:51:29;;;;;;;15.32;3.25;;;34.30;96.10;;;;;;5033182;28;20504;-72
2022/09/02 08:54:25;;;;;;;15.98;3.63;;;34.30;96.70;;;;;;5032991;28;20091;-73
2022/09/02 08:56:51;;;;;;;11.63;2.55;;;34.30;97.10;;;;;;5033070;28;20021;-73
2022/09/02 08:59:21;;;;;;;14.60;2.40;;;33.90;97.40;;;;;;5033384;28;20465;-72
2022/09/02 09:02:00;;;;;;;14.05;2.30;;;33.70;97.60;;;;;;5032927;28;20123;-72
2022/09/02 09:04:54;;;;;;;17.67;3.58;;;33.60;98.40;;;;;;5032961;28;20048;-72
2022/09/02 09:07:42;;;;;;;12.82;2.67;;;33.40;98.90;;;;;;5033042;28;20052;-72
2022/09/02 09:10:22;;;;;;;11.35;3.00;;;33.10;99.40;;;;;;5032760;28;20409;-72
2022/09/02 09:13:03;;;;;;;15.30;2.80;;;33.10;99.80;;;;;;5032640;28;20124;-72
2022/09/02 09:15:32;;;;;;;13.57;2.65;;;33.00;99.80;;;;;;5032985;28;20045;-72
2022/09/02 09:18:04;;;;;;;15.93;3.22;;;33.10;99.90;;;;;;5031187;28;20033;-73
2022/09/02 09:20:36;;;;;;;14.27;2.97;;;32.90;99.90;;;;;;5032621;28;20026;-72
2022/09/02 09:23:18;;;;;;;17.23;3.15;;;32.80;99.90;;;;;;5031302;28;20026;-73
2022/09/02 09:25:47;;;;;;;14.98;3.25;;;32.80;99.90;;;;;;5031406;28;20026;-73
2022/09/02 09:28:14;;;;;;;21.00;3.47;;;32.70;99.90;;;;;;5032287;28;20509;-72
2022/09/02 09:30:40;;;;;;;21.70;3.33;;;32.70;99.90;;;;;;5032368;28;20026;-72
2022/09/02 09:33:06;;;;;;;27.17;4.38;;;32.00;99.90;;;;;;5032802;28;20082;-72
2022/09/02 09:35:51;;;;;;;18.90;3.45;;;31.80;99.90;;;;;;5032442;28;20030;-72
2022/09/02 09:38:31;;;;;;;17.23;2.97;;;31.30;99.90;;;;;;5032383;28;20057;-71
2022/09/02 09:41:21;;;;;;;15.88;2.63;;;31.20;99.90;;;;;;5032315;28;20021;-72
2022/09/02 09:43:47;;;;;;;15.00;3.03;;;31.40;99.90;;;;;;5032135;28;20124;-72
2022/09/02 09:46:39;;;;;;;;;;;31.60;99.90;;;;;;5032695;28;20028;-72
2022/09/02 09:49:25;;;;;;;17.67;2.83;;;31.80;99.90;;;;;;5031627;28;19916;-72
2022/09/02 09:51:55;;;;;;;15.82;2.95;;;32.00;99.90;;;;;;5032391;28;20022;-72
2022/09/02 09:54:24;;;;;;;13.15;2.67;;;32.10;99.90;;;;;;5032384;28;20029;-72
2022/09/02 09:56:51;;;;;;;11.18;2.53;;;32.20;99.90;;;;;;5032116;28;20026;-72
2022/09/02 09:59:41;;;;;;;12.80;2.85;;;32.20;99.90;;;;;;5031584;28;20076;-71
2022/09/02 10:02:27;;;;;;;12.05;3.08;;;32.40;99.90;;;;;;5030355;28;20022;-71
2022/09/02 10:05:09;;;;;;;12.18;2.38;;;32.40;99.90;;;;;;5031797;28;20036;-71
2022/09/02 10:07:41;;;;;;;11.07;2.72;;;32.40;99.90;;;;;;5031918;28;20030;-71
2022/09/02 10:10:22;;;;;;;12.23;2.47;;;32.40;99.60;;;;;;5032078;28;20026;-71
2022/09/02 10:12:51;;;;;;;14.65;2.88;;;32.40;99.90;;;;;;5031928;28;20034;-73
2022/09/02 10:15:37;;;;;;;17.50;2.70;;;32.40;99.90;;;;;;5032122;28;20026;-72
2022/09/02 10:18:31;;;;;;;14.40;2.78;;;32.60;99.90;;;;;;5032635;28;20450;-73
2022/09/02 10:21:12;;;;;;;11.90;2.70;;;32.70;99.90;;;;;;5032475;28;20033;-72
2022/09/02 10:23:53;;;;;;;11.65;2.97;;;32.80;99.90;;;;;;5032398;28;20021;-71
2022/09/02 10:26:39;;;;;;;12.13;2.60;;;32.70;99.90;;;;;;5032267;28;20057;-72
2022/09/02 10:29:10;;;;;;;18.67;3.38;;;32.70;99.90;;;;;;5031832;28;20501;-72
2022/09/02 10:32:12;;;;;;;16.23;3.13;;;32.70;99.90;;;;;;5032469;28;20041;-72
2022/09/02 10:35:00;;;;;;;20.00;3.65;;;32.40;99.90;;;;;;5031782;28;20037;-72
2022/09/02 10:37:50;;;;;;;18.17;5.72;;;32.50;99.90;;;;;;5031951;28;20381;-72
2022/09/02 10:40:27;;;;;;;13.30;3.17;;;32.50;99.90;;;;;;5032260;28;20098;-72
2022/09/02 10:43:25;;;;;;;11.38;3.60;;;32.50;99.90;;;;;;5033433;28;20504;-72
2022/09/02 10:45:58;;;;;;;11.95;3.17;;;32.30;99.90;;;;;;5036069;28;20025;-72
2022/09/02 10:48:32;;;;;;;14.07;2.97;;;32.40;99.90;;;;;;5035723;28;20101;-72
2022/09/02 10:51:32;;;;;;;14.13;3.00;;;32.50;99.90;;;;;;5034325;28;20108;-72
2022/09/02 10:54:33;;;;;;;17.92;3.00;;;32.70;99.90;;;;;;5033824;28;20407;-72
2022/09/02 10:57:22;;;;;;;10.82;2.42;;;32.80;99.90;;;;;;5029387;28;20065;-71
2022/09/02 11:00:00;;;;;;;24.55;3.00;;;32.70;99.70;;;;;;5033525;28;20049;-71
2022/09/02 11:02:52;;;;;;;10.05;2.10;;;32.90;98.50;;;;;;5033523;28;20030;-72
2022/09/02 11:05:27;;;;;;;6.88;2.40;;;33.10;96.90;;;;;;5033364;28;20091;-72
2022/09/02 11:08:08;;;;;;;10.77;2.10;;;32.90;95.80;;;;;;5033556;28;20330;-71
2022/09/02 11:10:44;;;;;;;9.98;2.10;;;33.10;95.60;;;;;;5033366;28;20025;-71
2022/09/02 11:13:30;;;;;;;;;;;33.10;95.10;;;;;;5034040;28;20112;-71
2022/09/02 11:16:14;;;;;;;8.80;2.20;;;33.00;95.20;;;;;;5033182;28;19979;-71
2022/09/02 11:19:05;;;;;;;9.35;2.08;;;33.20;94.50;;;;;;5034395;28;20084;-71
2022/09/02 11:22:16;;;;;;;10.07;2.10;;;33.40;94.80;;;;;;5035295;28;20030;-71
2022/09/02 11:24:57;;;;;;;8.55;1.95;;;33.70;94.80;;;;;;5013385;28;20042;-71
2022/09/02 11:27:38;;;;;;;9.23;2.00;;;33.00;94.50;;;;;;5013087;28;20482;-71
2022/09/02 11:30:19;;;;;;;6.28;1.95;;;33.20;95.10;;;;;;5013368;28;20070;-71
2022/09/02 11:32:51;;;;;;;8.32;2.30;;;33.50;93.40;;;;;;5012987;28;20416;-72
2022/09/02 11:35:26;;;;;;;8.45;2.15;;;33.80;93.00;;;;;;5012804;28;20140;-71
2022/09/02 11:37:52;;;;;;;9.50;2.22;;;34.00;93.20;;;;;;5013052;28;20030;-71
2022/09/02 11:40:38;;;;;;;;;;;34.00;93.30;;;;;;5013000;28;20026;-71
2022/09/02 11:43:38;;;;;;;6.85;1.95;;;33.80;93.10;;;;;;4982955;28;19948;-71
2022/09/02 11:46:32;;;;;;;5.57;2.03;;;33.80;93.10;;;;;;5013029;28;20045;-71
2022/09/02 11:49:17;;;;;;;12.02;2.42;;;34.00;93.20;;;;;;5012750;28;20034;-72
2022/09/02 11:52:00;;;;;;;8.57;1.90;;;34.30;92.40;;;;;;5013043;28;20435;-72
2022/09/02 11:54:32;;;;;;;9.25;1.88;;;34.40;92.40;;;;;;5011981;28;20132;-72
2022/09/02 11:57:01;;;;;;;10.90;2.33;;;34.30;92.70;;;;;;5011948;28;20100;-71
2022/09/02 11:59:53;;;;;;;10.52;2.17;;;34.30;93.00;;;;;;5011805;28;20344;-71
2022/09/02 12:03:06;;;;;;;9.30;2.72;;;34.50;93.40;;;;;;4934120;29;20055;-71
2022/09/02 12:05:36;;;;;;;11.80;2.30;;;34.40;93.70;;;;;;4953338;29;20043;-71
2022/09/02 12:08:05;;;;;;;10.80;2.63;;;34.60;94.20;;;;;;4953903;29;20040;-71
2022/09/02 12:10:45;;;;;;;9.93;2.78;;;34.50;96.10;;;;;;4953556;29;20035;-72
2022/09/02 12:13:32;;;;;;;11.13;2.78;;;34.20;96.50;;;;;;4953141;29;20114;-71
2022/09/02 12:16:22;;;;;;;12.55;2.25;;;34.20;96.50;;;;;;4953884;29;20392;-71
2022/09/02 12:18:54;;;;;;;11.15;2.47;;;34.20;96.60;;;;;;4953945;29;20038;-71
2022/09/02 12:21:22;;;;;;;9.40;2.42;;;34.30;96.70;;;;;;4954252;29;20461;-71
2022/09/02 12:23:48;;;;;;;11.95;2.85;;;34.40;96.90;;;;;;4953775;29;20295;-71
2022/09/02 12:26:16;;;;;;;11.00;2.58;;;34.40;96.80;;;;;;4953718;29;20031;-71
2022/09/02 12:28:45;;;;;;;10.40;3.13;;;34.10;97.60;;;;;;4953287;29;20047;-71
2022/09/02 12:31:19;;;;;;;8.02;2.28;;;34.10;98.00;;;;;;4954234;29;20580;-71
2022/09/02 12:33:50;;;;;;;9.32;2.10;;;34.10;97.80;;;;;;4954248;29;20054;-71
2022/09/02 12:36:41;;;;;;;12.90;2.30;;;34.10;96.70;;;;;;4953265;29;20027;-71
2022/09/02 12:39:22;;;;;;;8.60;2.20;;;34.10;96.90;;;;;;5002814;28;20037;-71
2022/09/02 12:42:10;;;;;;;8.68;2.00;;;34.00;98.40;;;;;;5022163;28;20034;-71
2022/09/02 12:44:54;;;;;;;6.50;2.33;;;34.20;96.60;;;;;;5012535;28;20038;-71
2022/09/02 12:47:23;;;;;;;7.43;2.17;;;34.10;94.70;;;;;;5014247;28;20068;-71
2022/09/02 12:50:05;;;;;;;10.50;2.25;;;34.10;95.00;;;;;;5013786;28;20045;-71
2022/09/02 12:52:34;;;;;;;9.93;2.20;;;34.10;95.20;;;;;;5013569;28;20053;-71
2022/09/02 12:55:09;;;;;;;8.77;2.30;;;34.20;97.10;;;;;;5011834;28;20137;-72
2022/09/02 12:57:41;;;;;;;10.73;2.25;;;34.00;98.40;;;;;;5011750;28;20021;-71
2022/09/02 13:00:12;;;;;;;7.80;2.20;;;34.00;98.40;;;;;;5013463;28;20053;-71
2022/09/02 13:03:08;;;;;;;14.35;2.30;;;34.00;97.80;;;;;;5013206;28;20100;-71
2022/09/02 13:05:53;;;;;;;11.48;2.70;;;34.10;98.00;;;;;;5013036;28;20030;-72
2022/09/02 13:08:49;;;;;;;12.10;1.88;;;34.20;97.70;;;;;;5013174;28;20033;-71
2022/09/02 13:11:35;;;;;;;10.32;2.25;;;34.30;95.30;;;;;;5013579;28;20108;-71
2022/09/02 13:14:14;;;;;;;7.47;2.20;;;34.20;94.40;;;;;;5013381;28;20030;-72
2022/09/02 13:16:55;;;;;;;14.05;1.88;;;34.20;94.20;;;;;;5013292;28;20022;-71
2022/09/02 13:19:36;;;;;;;8.52;1.88;;;34.10;94.50;;;;;;5013759;28;20026;-73